createdAt,value
2018-07-24T00:00:04.060Z,99.90
2018-07-24T00:02:32.657Z,99.90
2018-07-24T00:05:00.212Z,99.90
2018-07-24T00:07:27.745Z,99.90
2018-07-24T00:09:55.310Z,99.90
2018-07-24T00:12:22.869Z,99.90
2018-07-24T00:14:51.176Z,99.90
2018-07-24T00:17:18.753Z,99.90
2018-07-24T00:19:46.296Z,99.90
2018-07-24T00:22:13.867Z,99.90
2018-07-24T00:24:41.417Z,99.90
2018-07-24T00:27:08.961Z,99.90
2018-07-24T00:29:36.530Z,99.90
2018-07-24T00:32:04.168Z,99.90
2018-07-24T00:34:31.701Z,99.90
2018-07-24T00:36:59.236Z,99.90
2018-07-24T00:39:26.764Z,99.90
2018-07-24T00:41:54.327Z,99.90
2018-07-24T00:44:21.864Z,99.90
2018-07-24T00:46:49.425Z,99.90
2018-07-24T00:49:17.068Z,99.90
2018-07-24T00:51:44.600Z,99.90
2018-07-24T00:54:12.974Z,99.90
2018-07-24T00:56:40.482Z,99.90
2018-07-24T00:59:08.040Z,99.90
2018-07-24T01:01:35.574Z,99.90
2018-07-24T01:04:03.130Z,99.90
2018-07-24T01:06:30.693Z,99.90
2018-07-24T01:08:58.257Z,99.90
2018-07-24T01:11:25.792Z,99.90
2018-07-24T01:13:53.345Z,99.90
2018-07-24T01:16:20.909Z,99.90
2018-07-24T01:18:48.465Z,99.90
2018-07-24T01:21:16.006Z,99.90
2018-07-24T01:23:43.573Z,99.90
2018-07-24T01:26:11.117Z,99.90
2018-07-24T01:28:39.441Z,99.90
2018-07-24T01:31:07.929Z,99.90
2018-07-24T01:33:35.501Z,99.90
2018-07-24T01:36:03.037Z,99.90
2018-07-24T01:38:30.572Z,99.90
2018-07-24T01:40:58.135Z,99.90
2018-07-24T01:43:25.660Z,99.90
2018-07-24T01:45:53.226Z,99.90
2018-07-24T01:48:20.905Z,99.90
2018-07-24T01:50:48.441Z,99.90
2018-07-24T01:53:16.005Z,99.90
2018-07-24T01:55:43.541Z,99.90
2018-07-24T01:58:11.105Z,99.90
2018-07-24T02:00:38.641Z,99.90
2018-07-24T02:03:06.204Z,99.90
2018-07-24T02:05:33.737Z,99.90
2018-07-24T02:08:01.301Z,99.90
2018-07-24T02:10:28.867Z,99.90
2018-07-24T02:12:56.405Z,99.90
2018-07-24T02:15:24.920Z,99.90
2018-07-24T02:17:52.461Z,99.90
2018-07-24T02:20:20.970Z,99.90
2018-07-24T02:22:48.505Z,99.90
2018-07-24T02:25:16.045Z,99.90
2018-07-24T02:27:43.609Z,99.90
2018-07-24T02:30:11.191Z,99.90
2018-07-24T02:32:38.753Z,99.90
2018-07-24T02:35:06.298Z,99.90
2018-07-24T02:37:34.629Z,99.90
2018-07-24T02:40:02.198Z,99.90
2018-07-24T02:42:29.739Z,99.90
2018-07-24T02:44:59.261Z,99.90
2018-07-24T02:47:26.799Z,99.90
2018-07-24T02:49:54.355Z,99.90
2018-07-24T02:52:21.898Z,99.90
2018-07-24T02:54:49.434Z,99.90
2018-07-24T02:57:17.000Z,99.90
2018-07-24T02:59:44.533Z,99.90
2018-07-24T03:02:12.861Z,99.90
2018-07-24T03:04:40.433Z,99.90
2018-07-24T03:07:07.969Z,99.90
2018-07-24T03:09:35.531Z,99.90
2018-07-24T03:12:03.070Z,99.90
2018-07-24T03:14:30.837Z,99.90
2018-07-24T03:16:58.368Z,99.90
2018-07-24T03:19:25.938Z,99.90
2018-07-24T03:21:53.505Z,99.90
2018-07-24T03:24:21.076Z,99.90
2018-07-24T03:26:48.644Z,99.90
2018-07-24T03:29:16.185Z,99.90
2018-07-24T03:31:43.759Z,99.90
2018-07-24T03:34:11.298Z,99.90
2018-07-24T03:36:39.773Z,99.90
2018-07-24T03:39:07.309Z,99.90
2018-07-24T03:41:34.869Z,99.90
2018-07-24T03:44:03.386Z,99.90
2018-07-24T03:46:30.932Z,99.90
2018-07-24T03:48:58.497Z,99.90
2018-07-24T03:51:26.063Z,99.90
2018-07-24T03:53:53.597Z,99.90
2018-07-24T03:56:23.109Z,99.90
2018-07-24T03:58:50.650Z,99.90
2018-07-24T04:01:19.169Z,99.90
2018-07-24T04:03:46.709Z,99.90
2018-07-24T04:06:14.258Z,99.90
2018-07-24T04:08:41.818Z,99.90
2018-07-24T04:11:09.378Z,99.90
2018-07-24T04:13:36.941Z,99.90
2018-07-24T04:16:04.477Z,99.90
2018-07-24T04:18:32.041Z,99.90
2018-07-24T04:20:59.611Z,99.90
2018-07-24T04:23:27.169Z,99.90
2018-07-24T04:25:55.657Z,99.90
2018-07-24T04:28:23.197Z,99.90
2018-07-24T04:30:50.783Z,99.90
2018-07-24T04:33:18.326Z,99.90
2018-07-24T04:35:45.892Z,99.90
2018-07-24T04:38:13.429Z,99.90
2018-07-24T04:40:40.989Z,99.90
2018-07-24T04:43:08.530Z,99.90
2018-07-24T04:45:36.093Z,99.90
2018-07-24T04:48:03.655Z,99.90
2018-07-24T04:50:31.232Z,99.90
2018-07-24T04:52:58.806Z,99.90
2018-07-24T04:55:27.132Z,99.90
2018-07-24T04:57:54.701Z,99.90
2018-07-24T05:00:22.265Z,99.90
2018-07-24T05:02:49.831Z,99.90
2018-07-24T05:05:17.379Z,99.90
2018-07-24T05:07:44.913Z,99.90
2018-07-24T05:10:12.534Z,99.90
2018-07-24T05:12:40.042Z,99.90
2018-07-24T05:15:07.968Z,99.90
2018-07-24T05:17:35.514Z,99.90
2018-07-24T05:20:03.843Z,99.90
2018-07-24T05:22:31.405Z,99.90
2018-07-24T05:24:58.937Z,99.90
2018-07-24T05:27:26.502Z,99.90
2018-07-24T05:29:55.001Z,99.90
2018-07-24T05:32:22.570Z,99.90
2018-07-24T05:34:51.070Z,99.90
2018-07-24T05:37:19.409Z,99.90
2018-07-24T05:39:46.940Z,99.90
2018-07-24T05:42:15.553Z,99.90
2018-07-24T05:44:43.119Z,99.90
2018-07-24T05:47:10.656Z,99.90
2018-07-24T05:49:38.236Z,99.90
2018-07-24T05:52:05.804Z,99.90
2018-07-24T05:54:33.379Z,99.90
2018-07-24T05:57:00.917Z,99.90
2018-07-24T05:59:28.477Z,99.90
2018-07-24T06:01:56.055Z,99.90
2018-07-24T06:04:23.605Z,99.90
2018-07-24T06:06:51.936Z,99.90
2018-07-24T06:09:19.472Z,99.90
2018-07-24T06:11:47.034Z,99.90
2018-07-24T06:14:14.565Z,99.90
2018-07-24T06:16:42.165Z,99.90
2018-07-24T06:19:09.674Z,99.90
2018-07-24T06:21:38.303Z,99.90
2018-07-24T06:24:05.815Z,99.90
2018-07-24T06:26:33.360Z,99.90
2018-07-24T06:29:00.917Z,99.90
2018-07-24T06:31:31.153Z,99.90
2018-07-24T06:33:58.714Z,99.90
2018-07-24T06:36:26.245Z,99.90
2018-07-24T06:38:53.802Z,99.90
2018-07-24T06:41:22.101Z,99.90
2018-07-24T06:43:49.657Z,99.90
2018-07-24T06:46:17.193Z,99.90
2018-07-24T06:48:44.759Z,99.90
2018-07-24T06:51:12.312Z,99.90
2018-07-24T06:53:40.634Z,99.90
2018-07-24T06:56:08.174Z,99.90
2018-07-24T06:58:35.715Z,99.90
2018-07-24T07:01:03.277Z,99.90
2018-07-24T07:03:30.858Z,99.90
2018-07-24T07:05:59.395Z,99.90
2018-07-24T07:08:26.950Z,99.90
2018-07-24T07:10:55.252Z,99.90
2018-07-24T07:13:22.878Z,99.90
2018-07-24T07:15:50.434Z,99.90
2018-07-24T07:18:18.004Z,99.90
2018-07-24T07:20:46.323Z,99.90
2018-07-24T07:23:13.888Z,99.90
2018-07-24T07:25:41.444Z,99.90
2018-07-24T07:28:09.017Z,99.90
2018-07-24T07:30:37.535Z,99.90
2018-07-24T07:33:05.146Z,99.90
2018-07-24T07:35:32.677Z,99.90
2018-07-24T07:38:00.220Z,99.90
2018-07-24T07:40:27.807Z,99.90
2018-07-24T07:42:56.309Z,99.90
2018-07-24T07:45:23.933Z,99.90
2018-07-24T07:47:53.445Z,99.90
2018-07-24T07:50:20.997Z,99.90
2018-07-24T07:52:48.560Z,99.90
2018-07-24T07:55:16.304Z,99.90
2018-07-24T07:57:43.865Z,99.90
2018-07-24T08:00:11.398Z,99.90
2018-07-24T08:02:38.989Z,99.90
2018-07-24T08:05:07.133Z,99.90
2018-07-24T08:07:36.638Z,99.90
2018-07-24T08:10:04.173Z,99.90
2018-07-24T08:12:31.713Z,99.90
2018-07-24T08:14:59.269Z,99.90
2018-07-24T08:17:26.797Z,99.90
2018-07-24T08:19:54.362Z,99.90
2018-07-24T08:22:21.910Z,99.90
2018-07-24T08:24:49.472Z,99.90
2018-07-24T08:27:17.405Z,99.90
2018-07-24T08:29:44.966Z,99.90
2018-07-24T08:32:13.445Z,99.90
2018-07-24T08:34:41.021Z,99.90
2018-07-24T08:37:08.574Z,99.90
2018-07-24T08:39:36.125Z,99.90
2018-07-24T08:42:03.654Z,99.90
2018-07-24T08:44:33.145Z,99.90
2018-07-24T08:47:00.702Z,99.90
2018-07-24T08:49:28.258Z,99.90
2018-07-24T08:51:56.555Z,99.90
2018-07-24T08:54:24.278Z,99.90
2018-07-24T08:56:52.643Z,99.90
2018-07-24T08:59:20.193Z,99.90
2018-07-24T09:01:47.739Z,99.90
2018-07-24T09:04:15.352Z,99.90
2018-07-24T09:06:42.867Z,99.90
2018-07-24T09:09:10.398Z,99.90
2018-07-24T09:11:37.957Z,99.40
2018-07-24T09:14:06.446Z,99.30
2018-07-24T09:16:34.009Z,99.20
2018-07-24T09:19:01.566Z,99.20
2018-07-24T09:21:30.090Z,99.20
2018-07-24T09:23:57.643Z,98.70
2018-07-24T09:26:25.200Z,98.90
2018-07-24T09:28:52.761Z,98.80
2018-07-24T09:31:20.421Z,97.40
2018-07-24T09:33:48.001Z,98.10
2018-07-24T09:36:15.537Z,98.30
2018-07-24T09:38:43.089Z,97.70
2018-07-24T09:41:10.653Z,97.60
2018-07-24T09:43:38.337Z,97.40
2018-07-24T09:46:05.878Z,97.20
2018-07-24T09:48:33.409Z,97.00
2018-07-24T09:51:00.977Z,96.50
2018-07-24T09:53:28.519Z,97.00
2018-07-24T09:55:56.836Z,96.50
2018-07-24T09:58:24.366Z,96.20
2018-07-24T10:00:51.921Z,97.10
2018-07-24T10:03:19.461Z,96.40
2018-07-24T10:05:48.922Z,96.90
2018-07-24T10:08:16.446Z,95.60
2018-07-24T10:10:44.001Z,96.10
2018-07-24T10:13:11.570Z,96.10
2018-07-24T10:15:40.149Z,95.70
2018-07-24T10:18:07.701Z,95.80
2018-07-24T10:20:35.267Z,95.70
2018-07-24T10:23:02.821Z,95.70
2018-07-24T10:25:30.355Z,95.20
2018-07-24T10:27:58.649Z,94.60
2018-07-24T10:30:26.233Z,94.50
2018-07-24T10:32:53.762Z,94.80
2018-07-24T10:35:22.322Z,94.10
2018-07-24T10:37:50.622Z,95.20
2018-07-24T10:40:18.203Z,95.10
2018-07-24T10:42:45.737Z,94.30
2018-07-24T10:45:13.270Z,93.70
2018-07-24T10:47:40.826Z,94.00
2018-07-24T10:50:08.397Z,94.50
2018-07-24T10:52:35.929Z,93.90
2018-07-24T10:55:03.494Z,94.00
2018-07-24T10:57:31.064Z,93.20
2018-07-24T10:59:58.621Z,93.50
2018-07-24T11:02:26.154Z,93.20
2018-07-24T11:04:54.478Z,92.80
2018-07-24T11:07:23.562Z,92.80
2018-07-24T11:09:51.173Z,93.20
2018-07-24T11:12:18.733Z,93.80
2018-07-24T11:14:46.289Z,93.10
2018-07-24T11:17:14.814Z,90.90
2018-07-24T11:19:43.344Z,90.70
2018-07-24T11:22:11.043Z,89.30
2018-07-24T11:24:38.458Z,90.00
2018-07-24T11:27:06.980Z,90.10
2018-07-24T11:29:34.505Z,88.40
2018-07-24T11:32:02.069Z,88.40
2018-07-24T11:34:30.362Z,86.30
2018-07-24T11:36:57.920Z,86.30
2018-07-24T11:39:25.458Z,84.90
2018-07-24T11:41:53.017Z,87.70
2018-07-24T11:44:21.655Z,85.20
2018-07-24T11:46:49.193Z,84.10
2018-07-24T11:49:18.701Z,86.40
2018-07-24T11:51:46.336Z,86.40
2018-07-24T11:54:13.862Z,85.30
2018-07-24T11:56:41.404Z,85.00
2018-07-24T11:59:08.964Z,81.90
2018-07-24T12:01:36.613Z,83.10
2018-07-24T12:04:04.173Z,79.60
2018-07-24T12:06:31.705Z,77.10
2018-07-24T12:08:59.233Z,78.30
2018-07-24T12:11:26.789Z,75.80
2018-07-24T12:13:54.321Z,75.40
2018-07-24T12:16:22.723Z,73.60
2018-07-24T12:18:50.248Z,73.50
2018-07-24T12:21:18.789Z,73.10
2018-07-24T12:23:46.321Z,70.40
2018-07-24T12:26:13.886Z,71.50
2018-07-24T12:28:41.415Z,69.80
2018-07-24T12:31:08.974Z,71.00
2018-07-24T12:33:37.488Z,69.70
2018-07-24T12:36:05.088Z,69.20
2018-07-24T12:38:32.591Z,68.20
2018-07-24T12:41:00.117Z,68.40
2018-07-24T12:43:27.679Z,67.50
2018-07-24T12:45:55.253Z,66.00
2018-07-24T12:48:23.028Z,67.50
2018-07-24T12:50:50.566Z,65.10
2018-07-24T12:53:18.129Z,66.30
2018-07-24T12:55:46.653Z,65.80
2018-07-24T12:58:14.205Z,61.10
2018-07-24T13:00:42.347Z,59.60
2018-07-24T13:03:09.930Z,60.20
2018-07-24T13:05:37.491Z,59.30
2018-07-24T13:08:05.061Z,58.60
2018-07-24T13:10:32.593Z,59.70
2018-07-24T13:13:00.149Z,59.00
2018-07-24T13:15:27.681Z,57.00
2018-07-24T13:17:55.260Z,55.20
2018-07-24T13:20:22.806Z,55.50
2018-07-24T13:22:50.369Z,55.60
2018-07-24T13:25:17.924Z,54.60
2018-07-24T13:27:45.452Z,56.20
2018-07-24T13:30:13.009Z,57.80
2018-07-24T13:32:40.538Z,56.90
2018-07-24T13:35:08.857Z,56.60
2018-07-24T13:37:36.448Z,56.30
2018-07-24T13:40:03.963Z,54.90
2018-07-24T13:42:31.517Z,53.80
2018-07-24T13:44:59.073Z,52.80
2018-07-24T13:47:26.644Z,53.70
2018-07-24T13:49:54.305Z,55.10
2018-07-24T13:52:21.869Z,54.80
2018-07-24T13:54:49.409Z,53.80
2018-07-24T13:57:16.970Z,53.10
2018-07-24T13:59:44.505Z,51.80
2018-07-24T14:02:12.041Z,54.30
2018-07-24T14:04:39.598Z,60.70
2018-07-24T14:07:07.904Z,61.90
2018-07-24T14:09:35.464Z,61.90
2018-07-24T14:12:03.036Z,62.10
2018-07-24T14:14:30.597Z,60.90
2018-07-24T14:16:58.139Z,58.90
2018-07-24T14:19:25.912Z,59.10
2018-07-24T14:21:53.475Z,59.90
2018-07-24T14:24:21.021Z,57.80
2018-07-24T14:26:48.589Z,56.90
2018-07-24T14:29:16.127Z,55.40
2018-07-24T14:31:43.658Z,55.90
2018-07-24T14:34:11.225Z,57.40
2018-07-24T14:36:38.794Z,55.30
2018-07-24T14:39:06.358Z,55.00
2018-07-24T14:41:33.898Z,53.40
2018-07-24T14:44:01.461Z,56.10
2018-07-24T14:46:29.971Z,57.40
2018-07-24T14:48:57.563Z,57.80
2018-07-24T14:51:25.124Z,58.20
2018-07-24T14:53:52.685Z,60.80
2018-07-24T14:56:20.989Z,67.40
2018-07-24T14:58:48.533Z,67.20
2018-07-24T15:01:17.092Z,67.80
2018-07-24T15:03:44.625Z,67.00
2018-07-24T15:06:12.196Z,66.70
2018-07-24T15:08:39.733Z,68.10
2018-07-24T15:11:07.293Z,68.60
2018-07-24T15:13:34.826Z,68.50
2018-07-24T15:16:02.393Z,70.80
2018-07-24T15:18:30.880Z,73.00
2018-07-24T15:20:58.413Z,74.40
2018-07-24T15:23:25.967Z,76.30
2018-07-24T15:25:53.496Z,75.90
2018-07-24T15:28:21.059Z,75.00
2018-07-24T15:30:48.593Z,75.80
2018-07-24T15:33:16.144Z,75.00
2018-07-24T15:35:43.669Z,75.10
2018-07-24T15:38:11.193Z,75.90
2018-07-24T15:40:38.757Z,76.50
2018-07-24T15:43:06.291Z,75.20
2018-07-24T15:45:33.857Z,76.20
2018-07-24T15:48:01.522Z,77.60
2018-07-24T15:50:29.303Z,77.60
2018-07-24T15:52:56.865Z,78.20
2018-07-24T15:55:24.430Z,78.20
2018-07-24T15:57:52.453Z,78.80
2018-07-24T16:00:20.884Z,79.10
2018-07-24T16:02:48.499Z,78.50
2018-07-24T16:05:16.055Z,79.20
2018-07-24T16:07:43.841Z,80.20
2018-07-24T16:10:12.346Z,81.10
2018-07-24T16:15:13.679Z,81.30
2018-07-24T16:17:42.224Z,81.90
2018-07-24T16:20:10.738Z,81.40
2018-07-24T16:22:38.298Z,81.40
2018-07-24T16:25:05.878Z,82.10
2018-07-24T16:27:33.446Z,82.50
2018-07-24T16:30:01.023Z,82.10
2018-07-24T16:32:28.601Z,82.10
2018-07-24T16:34:56.182Z,82.80
2018-07-24T16:37:23.715Z,82.30
2018-07-24T16:39:53.241Z,83.10
2018-07-24T16:42:20.776Z,82.50
2018-07-24T16:44:49.274Z,83.40
2018-07-24T16:47:16.856Z,84.40
2018-07-24T16:49:44.412Z,84.60
2018-07-24T16:52:11.985Z,85.80
2018-07-24T16:54:39.553Z,86.90
2018-07-24T16:57:07.118Z,86.50
2018-07-24T16:59:34.692Z,86.40
2018-07-24T17:02:02.277Z,86.30
2018-07-24T17:04:29.834Z,86.70
2018-07-24T17:06:57.369Z,87.70
2018-07-24T17:09:24.955Z,89.20
2018-07-24T17:11:52.510Z,90.10
2018-07-24T17:14:20.100Z,90.80
2018-07-24T17:16:48.674Z,90.70
2018-07-24T17:19:16.325Z,90.80
2018-07-24T17:21:43.886Z,91.20
2018-07-24T17:24:11.525Z,91.70
2018-07-24T17:26:39.150Z,91.80
2018-07-24T17:29:06.663Z,92.20
2018-07-24T17:31:34.247Z,92.10
2018-07-24T17:34:02.749Z,92.10
2018-07-24T17:36:32.324Z,92.50
2018-07-24T17:39:00.655Z,93.90
2018-07-24T17:41:28.251Z,93.90
2018-07-24T17:43:55.822Z,94.40
2018-07-24T17:46:23.421Z,95.10
2018-07-24T17:48:50.961Z,95.30
2018-07-24T17:51:18.532Z,95.90
2018-07-24T17:53:46.135Z,96.30
2018-07-24T17:56:13.725Z,95.90
2018-07-24T17:58:41.352Z,96.50
2018-07-24T18:01:09.008Z,96.50
2018-07-24T18:03:36.572Z,96.70
2018-07-24T18:06:04.158Z,97.60
2018-07-24T18:08:31.745Z,97.80
2018-07-24T18:10:59.318Z,98.50
2018-07-24T18:13:26.857Z,98.20
2018-07-24T18:15:54.483Z,98.30
2018-07-24T18:18:22.050Z,99.00
2018-07-24T18:20:49.614Z,99.30
2018-07-24T18:23:17.162Z,99.20
2018-07-24T18:25:44.725Z,99.30
2018-07-24T18:28:12.342Z,99.90
2018-07-24T18:30:39.889Z,99.90
2018-07-24T18:33:07.531Z,99.90
2018-07-24T18:35:35.098Z,99.90
2018-07-24T18:38:02.693Z,99.90
2018-07-24T18:40:31.007Z,99.90
2018-07-24T18:42:58.581Z,99.90
2018-07-24T18:45:26.145Z,99.90
2018-07-24T18:47:54.646Z,99.90
2018-07-24T18:50:22.212Z,99.90
2018-07-24T18:52:49.785Z,99.90
2018-07-24T18:55:17.394Z,99.90
2018-07-24T18:57:44.956Z,99.90
2018-07-24T19:00:12.554Z,99.90
2018-07-24T19:02:41.850Z,99.90
2018-07-24T19:05:10.173Z,99.90
2018-07-24T19:07:37.762Z,99.90
2018-07-24T19:10:05.336Z,99.90
2018-07-24T19:12:32.918Z,99.90
2018-07-24T19:15:00.472Z,99.90
2018-07-24T19:17:28.075Z,99.90
2018-07-24T19:19:55.632Z,99.90
2018-07-24T19:22:23.198Z,99.90
2018-07-24T19:24:50.838Z,99.90
2018-07-24T19:27:18.403Z,99.90
2018-07-24T19:29:45.981Z,99.90
2018-07-24T19:32:14.297Z,99.90
2018-07-24T19:34:41.862Z,99.90
2018-07-24T19:37:09.466Z,99.90
2018-07-24T19:39:37.034Z,99.90
2018-07-24T19:42:05.394Z,99.90
2018-07-24T19:44:32.962Z,99.90
2018-07-24T19:47:00.574Z,99.90
2018-07-24T19:49:28.240Z,99.90
2018-07-24T19:51:55.749Z,99.90
2018-07-24T19:54:23.327Z,99.90
2018-07-24T19:56:50.906Z,99.90
2018-07-24T19:59:19.451Z,99.90
2018-07-24T20:01:47.762Z,99.90
2018-07-24T20:04:15.334Z,99.90
2018-07-24T20:06:42.885Z,99.90
2018-07-24T20:09:10.494Z,99.90
2018-07-24T20:11:38.799Z,99.90
2018-07-24T20:14:06.345Z,99.90
2018-07-24T20:16:33.991Z,99.90
2018-07-24T20:19:01.532Z,99.90
2018-07-24T20:21:29.894Z,99.90
2018-07-24T20:23:57.486Z,99.90
2018-07-24T20:26:25.077Z,99.90
2018-07-24T20:28:52.712Z,99.90
2018-07-24T20:31:20.290Z,99.90
2018-07-24T20:33:47.842Z,99.90
2018-07-24T20:36:15.377Z,99.90
2018-07-24T20:38:42.943Z,99.90
2018-07-24T20:41:10.489Z,99.90
2018-07-24T20:43:38.096Z,99.90
2018-07-24T20:46:05.664Z,99.90
2018-07-24T20:48:33.245Z,99.90
2018-07-24T20:51:00.799Z,99.90
2018-07-24T20:53:28.411Z,99.90
2018-07-24T20:55:55.963Z,99.90
2018-07-24T20:58:23.520Z,99.90
2018-07-24T21:00:51.115Z,99.90
2018-07-24T21:03:18.690Z,99.90
2018-07-24T21:05:46.301Z,99.90
2018-07-24T21:08:14.321Z,99.90
2018-07-24T21:10:42.874Z,99.90
2018-07-24T21:13:10.490Z,99.90
2018-07-24T21:15:38.079Z,99.90
2018-07-24T21:18:05.646Z,99.90
2018-07-24T21:20:33.218Z,99.90
2018-07-24T21:23:01.557Z,99.90
2018-07-24T21:25:29.159Z,99.90
2018-07-24T21:27:56.779Z,99.90
2018-07-24T21:30:24.345Z,99.90
2018-07-24T21:32:51.938Z,99.90
2018-07-24T21:35:20.250Z,99.90
2018-07-24T21:37:47.819Z,99.90
2018-07-24T21:40:15.413Z,99.90
2018-07-24T21:42:43.024Z,99.90
2018-07-24T21:45:10.605Z,99.90
2018-07-24T21:47:38.146Z,99.90
2018-07-24T21:52:39.709Z,99.90
2018-07-24T21:55:07.305Z,99.90
2018-07-24T21:57:35.652Z,99.90
2018-07-24T22:00:03.201Z,99.90
2018-07-24T22:02:30.808Z,99.90
2018-07-24T22:04:58.390Z,99.90
2018-07-24T22:07:25.980Z,99.90
2018-07-24T22:09:53.544Z,99.90
2018-07-24T22:12:21.144Z,99.90
2018-07-24T22:14:49.675Z,99.90
2018-07-24T22:17:17.281Z,99.90
2018-07-24T22:19:45.602Z,99.90
2018-07-24T22:22:13.184Z,99.90
2018-07-24T22:24:40.788Z,99.90
2018-07-24T22:27:08.675Z,99.90
2018-07-24T22:29:36.254Z,99.90
2018-07-24T22:32:03.828Z,99.90
2018-07-24T22:34:31.405Z,99.90
2018-07-24T22:36:58.962Z,99.90
2018-07-24T22:39:27.311Z,99.90
2018-07-24T22:41:54.878Z,99.90
2018-07-24T22:44:22.426Z,99.90
2018-07-24T22:46:50.034Z,99.90
2018-07-24T22:49:17.582Z,99.90
2018-07-24T22:51:45.152Z,99.90
2018-07-24T22:54:12.711Z,99.90
2018-07-24T22:56:40.367Z,99.90
2018-07-24T22:59:07.895Z,99.90
2018-07-24T23:01:36.225Z,99.90
2018-07-24T23:04:03.799Z,99.90
2018-07-24T23:06:31.349Z,99.90
2018-07-24T23:08:59.957Z,99.90
2018-07-24T23:11:27.523Z,99.90
2018-07-24T23:13:55.126Z,99.90
2018-07-24T23:16:22.675Z,99.90
2018-07-24T23:18:50.254Z,99.90
2018-07-24T23:21:17.822Z,99.90
2018-07-24T23:23:45.446Z,99.90
2018-07-24T23:26:13.043Z,99.90
2018-07-24T23:28:40.612Z,99.90
2018-07-24T23:31:08.192Z,99.90
2018-07-24T23:33:35.746Z,99.90
2018-07-24T23:36:03.350Z,99.90
2018-07-24T23:38:30.915Z,99.90
2018-07-24T23:40:59.462Z,99.90
2018-07-24T23:43:27.059Z,99.90
2018-07-24T23:45:54.638Z,99.90
2018-07-24T23:48:22.188Z,99.90
2018-07-24T23:50:49.789Z,99.90
2018-07-24T23:53:17.367Z,99.90
2018-07-24T23:55:44.937Z,99.90
2018-07-24T23:58:12.514Z,99.90
